createdAt,value
2019-05-22T00:00:29.956Z,37.97
2019-05-22T00:03:00.763Z,36.10
2019-05-22T00:05:33.916Z,34.60
2019-05-22T00:08:04.325Z,35.80
2019-05-22T00:10:34.336Z,39.03
2019-05-22T00:13:05.117Z,35.27
2019-05-22T00:15:38.413Z,37.93
2019-05-22T00:18:07.494Z,36.40
2019-05-22T00:20:36.019Z,36.20
2019-05-22T00:23:11.030Z,34.97
2019-05-22T00:25:40.818Z,33.70
2019-05-22T00:28:10.430Z,35.17
2019-05-22T00:30:41.067Z,35.93
2019-05-22T00:33:12.205Z,35.00
2019-05-22T00:35:42.509Z,36.20
2019-05-22T00:38:11.647Z,35.30
2019-05-22T00:40:42.846Z,33.40
2019-05-22T00:43:14.579Z,30.90
2019-05-22T00:45:45.704Z,31.40
2019-05-22T00:48:16.410Z,30.90
2019-05-22T00:51:04.392Z,29.23
2019-05-22T00:53:38.310Z,27.67
2019-05-22T00:56:26.432Z,25.57
2019-05-22T00:58:57.881Z,26.10
2019-05-22T01:01:32.244Z,26.87
2019-05-22T01:04:02.312Z,24.37
2019-05-22T01:06:32.397Z,23.97
2019-05-22T01:09:04.321Z,21.20
2019-05-22T01:11:34.014Z,24.20
2019-05-22T01:14:04.261Z,22.00
2019-05-22T01:16:33.105Z,21.33
2019-05-22T01:19:01.713Z,20.70
2019-05-22T01:21:33.191Z,22.20
2019-05-22T01:24:03.490Z,18.07
2019-05-22T01:26:33.557Z,20.53
2019-05-22T01:29:02.599Z,21.93
2019-05-22T01:31:32.805Z,17.93
2019-05-22T01:34:05.423Z,18.47
2019-05-22T01:36:35.585Z,17.33
2019-05-22T01:39:22.873Z,19.87
2019-05-22T01:41:53.316Z,18.03
2019-05-22T01:44:23.051Z,16.77
2019-05-22T01:46:53.729Z,19.47
2019-05-22T01:49:22.182Z,20.83
2019-05-22T01:51:50.962Z,18.00
2019-05-22T01:54:19.854Z,19.40
2019-05-22T01:56:48.627Z,17.33
2019-05-22T01:59:18.149Z,18.03
2019-05-22T02:01:48.418Z,17.70
2019-05-22T02:04:18.575Z,16.40
2019-05-22T02:06:47.838Z,16.00
2019-05-22T02:09:23.969Z,16.37
2019-05-22T02:11:56.879Z,16.53
2019-05-22T02:14:25.494Z,15.70
2019-05-22T02:16:57.192Z,14.60
2019-05-22T02:19:26.119Z,16.13
2019-05-22T02:21:55.430Z,13.63
2019-05-22T02:24:23.877Z,12.13
2019-05-22T02:26:52.573Z,12.87
2019-05-22T02:29:22.099Z,12.83
2019-05-22T02:31:55.007Z,12.43
2019-05-22T02:34:21.460Z,10.43
2019-05-22T02:36:49.894Z,11.40
2019-05-22T02:39:25.801Z,10.37
2019-05-22T02:41:58.587Z,12.13
2019-05-22T02:44:28.763Z,10.50
2019-05-22T02:47:16.548Z,10.30
2019-05-22T02:49:29.983Z,11.07
2019-05-22T02:51:58.979Z,9.33
2019-05-22T02:54:31.471Z,9.47
2019-05-22T02:57:00.939Z,8.37
2019-05-22T02:59:31.209Z,8.17
2019-05-22T03:02:01.874Z,9.23
2019-05-22T03:04:48.267Z,9.90
2019-05-22T03:07:17.588Z,10.40
2019-05-22T03:09:46.827Z,9.63
2019-05-22T03:12:16.893Z,9.43
2019-05-22T03:14:46.857Z,9.27
2019-05-22T03:17:27.762Z,11.60
2019-05-22T03:19:57.773Z,12.17
2019-05-22T03:22:36.721Z,10.87
2019-05-22T03:25:09.827Z,11.47
2019-05-22T03:27:40.866Z,10.60
2019-05-22T03:30:27.179Z,10.97
2019-05-22T03:32:56.948Z,11.30
2019-05-22T03:35:27.899Z,12.70
2019-05-22T03:37:59.144Z,11.17
2019-05-22T03:40:29.722Z,11.83
2019-05-22T03:42:59.760Z,10.53
2019-05-22T03:45:29.354Z,11.37
2019-05-22T03:47:57.935Z,12.47
2019-05-22T03:50:28.406Z,11.77
2019-05-22T03:52:59.999Z,11.47
2019-05-22T03:55:28.506Z,11.47
2019-05-22T03:57:57.188Z,12.50
2019-05-22T04:00:27.223Z,11.77
2019-05-22T04:02:56.700Z,11.37
2019-05-22T04:05:26.348Z,11.10
2019-05-22T04:07:55.429Z,11.33
2019-05-22T04:10:23.949Z,13.27
2019-05-22T04:12:54.643Z,11.03
2019-05-22T04:15:23.649Z,12.80
2019-05-22T04:17:52.274Z,12.10
2019-05-22T04:20:21.662Z,13.43
2019-05-22T04:22:51.916Z,14.67
2019-05-22T04:25:20.355Z,14.83
2019-05-22T04:27:48.798Z,14.70
2019-05-22T04:30:18.388Z,12.33
2019-05-22T04:32:47.772Z,15.23
2019-05-22T04:35:18.977Z,15.60
2019-05-22T04:37:49.458Z,15.47
2019-05-22T04:40:27.221Z,16.03
2019-05-22T04:42:58.755Z,14.33
2019-05-22T04:45:28.379Z,14.50
2019-05-22T04:47:58.845Z,12.87
2019-05-22T04:50:28.912Z,12.50
2019-05-22T04:52:58.954Z,13.30
2019-05-22T04:55:29.299Z,15.63
2019-05-22T04:58:04.523Z,12.23
2019-05-22T05:00:33.942Z,14.00
2019-05-22T05:03:02.842Z,14.17
2019-05-22T05:05:35.789Z,15.63
2019-05-22T05:08:05.180Z,12.40
2019-05-22T05:10:34.246Z,13.53
2019-05-22T05:13:03.138Z,14.63
2019-05-22T05:15:31.658Z,11.23
2019-05-22T05:18:00.118Z,8.70
2019-05-22T05:20:28.634Z,8.93
2019-05-22T05:22:57.139Z,10.90
2019-05-22T05:25:25.929Z,11.17
2019-05-22T05:27:54.608Z,19.57
2019-05-22T05:30:26.342Z,16.87
2019-05-22T05:32:55.913Z,26.87
2019-05-22T05:35:25.048Z,24.30
2019-05-22T05:37:53.549Z,18.57
2019-05-22T05:40:39.305Z,13.17
2019-05-22T05:43:10.013Z,13.83
2019-05-22T05:45:41.044Z,32.00
2019-05-22T05:48:11.639Z,10.43
2019-05-22T05:50:43.146Z,22.53
2019-05-22T05:53:16.211Z,11.50
2019-05-22T05:56:07.240Z,9.10
2019-05-22T05:58:35.882Z,9.07
2019-05-22T06:01:15.055Z,7.87
2019-05-22T06:03:45.108Z,11.80
2019-05-22T06:06:23.743Z,11.63
2019-05-22T06:08:53.998Z,10.73
2019-05-22T06:11:34.301Z,11.10
2019-05-22T06:14:03.874Z,11.17
2019-05-22T06:16:50.920Z,13.40
2019-05-22T06:19:21.399Z,20.00
2019-05-22T06:21:50.927Z,13.70
2019-05-22T06:24:35.367Z,17.27
2019-05-22T06:27:15.639Z,11.47
2019-05-22T06:30:17.894Z,29.77
2019-05-22T06:33:13.285Z,22.33
2019-05-22T06:35:43.535Z,45.57
2019-05-22T06:38:17.774Z,28.03
2019-05-22T06:40:46.401Z,34.20
2019-05-22T06:43:20.593Z,22.97
2019-05-22T06:45:49.106Z,57.40
2019-05-22T06:48:17.539Z,13.83
2019-05-22T06:50:49.161Z,17.80
2019-05-22T06:53:16.310Z,9.00
2019-05-22T06:55:45.221Z,30.07
2019-05-22T06:58:13.722Z,24.63
2019-05-22T07:00:42.505Z,37.27
2019-05-22T07:03:13.555Z,12.77
2019-05-22T07:05:42.707Z,8.77
2019-05-22T07:08:12.447Z,12.33
2019-05-22T07:10:41.327Z,13.57
2019-05-22T07:13:10.893Z,8.53
2019-05-22T07:15:42.982Z,11.33
2019-05-22T07:18:13.656Z,10.00
2019-05-22T07:20:42.610Z,11.77
2019-05-22T07:23:15.849Z,9.90
2019-05-22T07:25:46.106Z,9.03
2019-05-22T07:28:17.067Z,9.40
2019-05-22T07:30:47.199Z,9.70
2019-05-22T07:33:16.072Z,9.17
2019-05-22T07:36:07.082Z,9.03
2019-05-22T07:38:15.529Z,8.40
2019-05-22T07:40:44.176Z,8.70
2019-05-22T07:43:13.191Z,9.30
2019-05-22T07:45:41.849Z,15.20
2019-05-22T07:48:10.581Z,8.93
2019-05-22T07:50:41.449Z,9.67
2019-05-22T07:53:10.285Z,7.97
2019-05-22T07:55:39.296Z,8.70
2019-05-22T07:58:13.133Z,8.40
2019-05-22T08:00:45.360Z,10.13
2019-05-22T08:03:14.116Z,10.67
2019-05-22T08:05:45.804Z,9.33
2019-05-22T08:08:18.623Z,9.83
2019-05-22T08:10:46.701Z,9.83
2019-05-22T08:13:15.695Z,11.50
2019-05-22T08:15:47.616Z,8.03
2019-05-22T08:18:16.570Z,13.10
2019-05-22T08:20:45.445Z,8.33
2019-05-22T08:23:13.965Z,9.00
2019-05-22T08:25:42.413Z,9.67
2019-05-22T08:28:11.934Z,16.07
2019-05-22T08:30:40.618Z,9.57
2019-05-22T08:33:11.809Z,17.90
2019-05-22T08:35:40.331Z,40.63
2019-05-22T08:38:09.923Z,55.33
2019-05-22T08:40:39.269Z,48.37
2019-05-22T08:43:07.964Z,13.90
2019-05-22T08:45:37.421Z,88.23
2019-05-22T08:48:07.181Z,20.17
2019-05-22T08:50:37.427Z,28.87
2019-05-22T08:53:06.967Z,224.47
2019-05-22T08:55:36.006Z,64.37
2019-05-22T08:58:05.764Z,167.67
2019-05-22T09:00:34.699Z,80.33
2019-05-22T09:03:03.924Z,354.50
2019-05-22T09:05:32.606Z,83.80
2019-05-22T09:08:01.346Z,1057.70
2019-05-22T09:10:29.961Z,1568.27
2019-05-22T09:12:58.420Z,598.20
2019-05-22T09:15:28.528Z,152.40
2019-05-22T09:17:57.067Z,427.13
2019-05-22T09:20:25.576Z,112.70
2019-05-22T09:22:54.662Z,31.73
2019-05-22T09:25:23.289Z,165.47
2019-05-22T09:27:52.402Z,211.17
2019-05-22T09:30:20.921Z,787.87
2019-05-22T09:32:49.367Z,192.97
2019-05-22T09:35:19.187Z,89.37
2019-05-22T09:37:47.911Z,74.33
2019-05-22T09:40:16.814Z,58.87
2019-05-22T09:42:45.253Z,35.17
2019-05-22T09:45:14.113Z,103.93
2019-05-22T09:47:42.550Z,51.53
2019-05-22T09:50:13.086Z,18.13
2019-05-22T09:52:56.343Z,9.57
2019-05-22T09:55:13.693Z,14.30
2019-05-22T09:57:42.361Z,17.47
2019-05-22T10:00:12.315Z,14.90
2019-05-22T10:02:41.713Z,8.53
2019-05-22T10:05:11.222Z,7.27
2019-05-22T10:07:57.195Z,121.00
2019-05-22T10:10:12.152Z,20.80
2019-05-22T10:12:40.649Z,10.70
2019-05-22T10:15:10.061Z,6.97
2019-05-22T10:17:42.277Z,7.97
2019-05-22T10:20:11.086Z,8.70
2019-05-22T10:22:40.126Z,7.77
2019-05-22T10:25:15.822Z,10.37
2019-05-22T10:27:40.029Z,60.43
2019-05-22T10:30:13.811Z,12.23
2019-05-22T10:32:42.389Z,20.70
2019-05-22T10:35:12.356Z,5.93
2019-05-22T10:37:41.521Z,9.40
2019-05-22T10:40:12.370Z,4.93
2019-05-22T10:42:44.684Z,7.17
2019-05-22T10:45:11.450Z,6.97
2019-05-22T10:47:40.283Z,9.23
2019-05-22T10:50:09.249Z,14.07
2019-05-22T10:52:37.682Z,18.57
2019-05-22T10:55:08.074Z,13.30
2019-05-22T10:57:40.426Z,11.93
2019-05-22T11:00:12.901Z,46.20
2019-05-22T11:02:41.748Z,11.57
2019-05-22T11:05:10.502Z,10.10
2019-05-22T11:07:39.406Z,18.73
2019-05-22T11:10:09.683Z,19.77
2019-05-22T11:12:38.208Z,17.67
2019-05-22T11:15:09.119Z,9.20
2019-05-22T11:17:38.188Z,9.47
2019-05-22T11:20:08.449Z,16.10
2019-05-22T11:22:37.225Z,11.97
2019-05-22T11:25:09.954Z,10.50
2019-05-22T11:27:39.339Z,18.77
2019-05-22T11:30:10.831Z,9.07
2019-05-22T11:32:40.032Z,10.10
2019-05-22T11:35:10.215Z,13.53
2019-05-22T11:37:39.373Z,12.63
2019-05-22T11:40:08.631Z,13.97
2019-05-22T11:42:38.476Z,16.00
2019-05-22T11:45:11.717Z,13.43
2019-05-22T11:47:41.396Z,14.17
2019-05-22T11:50:15.653Z,12.63
2019-05-22T11:52:44.263Z,12.10
2019-05-22T11:55:13.467Z,16.63
2019-05-22T11:57:46.011Z,12.23
2019-05-22T12:00:16.367Z,13.70
2019-05-22T12:02:45.364Z,14.17
2019-05-22T12:05:15.342Z,91.37
2019-05-22T12:07:44.596Z,99.93
2019-05-22T12:10:14.772Z,67.77
2019-05-22T12:12:44.517Z,51.37
2019-05-22T12:15:14.006Z,21.60
2019-05-22T12:17:42.739Z,20.10
2019-05-22T12:20:14.254Z,16.10
2019-05-22T12:22:43.032Z,15.73
2019-05-22T12:25:14.411Z,13.60
2019-05-22T12:27:42.833Z,17.13
2019-05-22T12:30:12.830Z,16.07
2019-05-22T12:32:41.794Z,15.93
2019-05-22T12:35:13.297Z,14.73
2019-05-22T12:37:41.897Z,17.17
2019-05-22T12:40:13.204Z,15.83
2019-05-22T12:42:41.780Z,20.93
2019-05-22T12:45:11.877Z,20.43
2019-05-22T12:47:41.104Z,16.27
2019-05-22T12:50:11.504Z,16.97
2019-05-22T12:52:40.011Z,20.97
2019-05-22T12:55:08.715Z,29.17
2019-05-22T12:57:37.547Z,19.37
2019-05-22T13:00:08.221Z,17.10
2019-05-22T13:02:42.215Z,16.03
2019-05-22T13:05:08.534Z,19.13
2019-05-22T13:07:37.703Z,20.37
2019-05-22T13:10:08.023Z,18.57
2019-05-22T13:12:37.117Z,20.00
2019-05-22T13:15:10.687Z,14.83
2019-05-22T13:17:39.492Z,17.20
2019-05-22T13:20:12.909Z,19.57
2019-05-22T13:22:44.445Z,18.67
2019-05-22T13:25:15.375Z,20.03
2019-05-22T13:27:45.286Z,20.63
2019-05-22T13:30:15.893Z,18.67
2019-05-22T13:32:45.242Z,18.00
2019-05-22T13:35:15.733Z,22.30
2019-05-22T13:37:44.872Z,20.20
2019-05-22T13:40:27.065Z,24.27
2019-05-22T13:42:44.601Z,19.47
2019-05-22T13:45:27.896Z,20.47
2019-05-22T13:47:44.609Z,19.67
2019-05-22T13:50:15.957Z,21.60
2019-05-22T13:52:45.527Z,22.40
2019-05-22T13:55:14.380Z,20.70
2019-05-22T13:57:42.834Z,19.13
2019-05-22T14:00:15.330Z,24.40
2019-05-22T14:02:43.781Z,21.30
2019-05-22T14:05:14.000Z,20.53
2019-05-22T14:07:42.625Z,31.60
2019-05-22T14:10:11.345Z,18.93
2019-05-22T14:12:39.971Z,20.53
2019-05-22T14:15:08.840Z,21.00
2019-05-22T14:17:37.510Z,19.53
2019-05-22T14:20:07.770Z,20.80
2019-05-22T14:22:36.213Z,20.73
2019-05-22T14:25:07.832Z,21.30
2019-05-22T14:27:41.071Z,19.60
2019-05-22T14:30:07.860Z,20.77
2019-05-22T14:32:37.091Z,18.20
2019-05-22T14:35:06.656Z,20.40
2019-05-22T14:37:35.240Z,19.43
2019-05-22T14:40:06.734Z,20.17
2019-05-22T14:42:35.247Z,19.53
2019-05-22T14:45:05.098Z,23.57
2019-05-22T14:47:33.623Z,18.07
2019-05-22T14:50:03.022Z,16.50
2019-05-22T14:52:32.857Z,22.57
2019-05-22T14:55:01.515Z,19.37
2019-05-22T14:57:30.451Z,18.47
2019-05-22T14:59:59.021Z,18.77
2019-05-22T15:02:27.726Z,18.50
2019-05-22T15:04:57.265Z,18.70
2019-05-22T15:07:25.866Z,24.27
2019-05-22T15:09:54.383Z,23.23
2019-05-22T15:12:22.894Z,19.23
2019-05-22T15:14:51.396Z,21.30
2019-05-22T15:17:31.581Z,21.43
2019-05-22T15:19:50.554Z,18.87
2019-05-22T15:22:19.441Z,15.93
2019-05-22T15:24:48.270Z,14.90
2019-05-22T15:27:17.520Z,16.53
2019-05-22T15:29:46.034Z,20.23
2019-05-22T15:32:16.245Z,21.27
2019-05-22T15:34:44.848Z,21.13
2019-05-22T15:37:14.869Z,26.20
2019-05-22T15:39:43.332Z,19.30
2019-05-22T15:42:15.212Z,19.73
2019-05-22T15:44:44.323Z,19.17
2019-05-22T15:47:12.819Z,18.13
2019-05-22T15:49:44.313Z,17.23
2019-05-22T15:52:15.158Z,19.40
2019-05-22T15:54:45.648Z,15.60
2019-05-22T15:57:16.227Z,20.17
2019-05-22T15:59:44.965Z,22.40
2019-05-22T16:02:14.925Z,16.17
2019-05-22T16:04:43.400Z,14.87
2019-05-22T16:07:12.600Z,16.00
2019-05-22T16:09:43.151Z,15.97
2019-05-22T16:12:12.220Z,18.10
2019-05-22T16:14:41.412Z,18.23
2019-05-22T16:17:10.445Z,19.13
2019-05-22T16:19:40.077Z,15.40
2019-05-22T16:22:10.073Z,17.33
2019-05-22T16:24:42.250Z,17.63
2019-05-22T16:27:12.705Z,15.53
2019-05-22T16:29:41.802Z,14.77
2019-05-22T16:32:12.203Z,17.67
2019-05-22T16:34:41.383Z,17.37
2019-05-22T16:37:10.009Z,16.47
2019-05-22T16:39:39.885Z,14.63
2019-05-22T16:42:09.989Z,17.03
2019-05-22T16:44:38.650Z,13.67
2019-05-22T16:47:08.809Z,17.87
2019-05-22T16:49:37.757Z,16.60
2019-05-22T16:52:08.931Z,13.07
2019-05-22T16:54:39.696Z,17.03
2019-05-22T16:57:09.462Z,12.93
2019-05-22T16:59:40.296Z,13.70
2019-05-22T17:02:12.100Z,12.53
2019-05-22T17:04:40.835Z,14.37
2019-05-22T17:07:09.364Z,12.37
2019-05-22T17:09:39.042Z,10.73
2019-05-22T17:12:09.094Z,14.63
2019-05-22T17:14:37.529Z,13.70
2019-05-22T17:17:07.375Z,11.77
2019-05-22T17:19:36.029Z,9.37
2019-05-22T17:22:06.420Z,12.43
2019-05-22T17:24:35.006Z,10.70
2019-05-22T17:27:04.350Z,12.90
2019-05-22T17:29:34.171Z,9.20
2019-05-22T17:32:04.058Z,8.67
2019-05-22T17:34:33.666Z,10.47
2019-05-22T17:37:09.574Z,17.67
2019-05-22T17:39:40.945Z,8.97
2019-05-22T17:42:12.806Z,8.87
2019-05-22T17:44:45.416Z,10.63
2019-05-22T17:47:14.576Z,8.27
2019-05-22T17:49:43.284Z,11.13
2019-05-22T17:52:13.347Z,8.73
2019-05-22T17:54:42.139Z,8.07
2019-05-22T17:57:11.507Z,5.97
2019-05-22T17:59:40.017Z,8.80
2019-05-22T18:02:10.187Z,7.43
2019-05-22T18:04:38.696Z,11.60
2019-05-22T18:07:07.193Z,10.83
2019-05-22T18:09:36.118Z,8.67
2019-05-22T18:12:06.373Z,9.57
2019-05-22T18:14:35.365Z,9.63
2019-05-22T18:17:04.164Z,9.77
2019-05-22T18:19:33.105Z,10.80
2019-05-22T18:22:01.645Z,12.23
2019-05-22T18:24:30.073Z,9.00
2019-05-22T18:26:58.535Z,9.57
2019-05-22T18:29:27.422Z,12.73
2019-05-22T18:31:56.126Z,7.97
2019-05-22T18:34:24.578Z,8.30
2019-05-22T18:36:53.198Z,12.60
2019-05-22T18:39:22.593Z,8.73
2019-05-22T18:41:51.032Z,10.20
2019-05-22T18:44:19.497Z,10.70
2019-05-22T18:46:48.111Z,9.40
2019-05-22T18:49:16.563Z,9.83
2019-05-22T18:51:45.591Z,8.17
2019-05-22T18:54:14.120Z,10.13
2019-05-22T18:56:42.627Z,11.27
2019-05-22T18:59:11.813Z,7.90
2019-05-22T19:01:40.237Z,6.33
2019-05-22T19:04:08.982Z,9.57
2019-05-22T19:06:37.401Z,8.63
2019-05-22T19:09:08.875Z,9.37
2019-05-22T19:11:37.604Z,8.97
2019-05-22T19:14:06.539Z,9.93
2019-05-22T19:16:35.372Z,8.83
2019-05-22T19:19:06.617Z,6.33
2019-05-22T19:21:35.147Z,6.87
2019-05-22T19:24:05.603Z,9.87
2019-05-22T19:26:34.044Z,9.13
2019-05-22T19:29:04.433Z,8.00
2019-05-22T19:31:33.171Z,6.17
2019-05-22T19:34:01.642Z,7.77
2019-05-22T19:36:30.152Z,8.37
2019-05-22T19:38:58.665Z,5.60
2019-05-22T19:41:27.112Z,7.73
2019-05-22T19:43:55.701Z,6.73
2019-05-22T19:46:24.483Z,4.93
2019-05-22T19:48:52.907Z,6.40
2019-05-22T19:51:21.374Z,6.33
2019-05-22T19:53:50.078Z,8.33
2019-05-22T19:56:18.704Z,6.33
2019-05-22T19:58:47.143Z,5.83
2019-05-22T20:01:15.830Z,5.17
2019-05-22T20:03:44.346Z,5.07
2019-05-22T20:06:12.804Z,9.90
2019-05-22T20:08:41.578Z,7.70
2019-05-22T20:11:10.326Z,3.93
2019-05-22T20:13:39.440Z,6.73
2019-05-22T20:16:09.174Z,6.60
2019-05-22T20:18:38.065Z,6.13
2019-05-22T20:21:06.589Z,7.80
2019-05-22T20:23:36.801Z,6.37
2019-05-22T20:26:05.497Z,8.37
2019-05-22T20:28:34.182Z,5.63
2019-05-22T20:31:02.726Z,6.30
2019-05-22T20:33:31.795Z,5.87
2019-05-22T20:36:00.318Z,6.10
2019-05-22T20:38:29.017Z,7.20
2019-05-22T20:40:57.932Z,10.47
2019-05-22T20:43:27.505Z,6.23
2019-05-22T20:45:56.729Z,6.10
2019-05-22T20:48:27.841Z,6.60
2019-05-22T20:50:58.542Z,9.37
2019-05-22T20:53:28.521Z,10.07
2019-05-22T20:55:57.068Z,12.50
2019-05-22T20:58:27.412Z,6.57
2019-05-22T21:00:55.870Z,9.10
2019-05-22T21:03:25.786Z,7.37
2019-05-22T21:05:54.385Z,6.87
2019-05-22T21:08:25.098Z,6.40
2019-05-22T21:10:54.264Z,7.80
2019-05-22T21:13:23.796Z,8.27
2019-05-22T21:15:53.936Z,11.73
2019-05-22T21:18:24.261Z,7.07
2019-05-22T21:20:55.192Z,6.07
2019-05-22T21:23:23.802Z,7.13
2019-05-22T21:25:52.304Z,5.87
2019-05-22T21:28:21.327Z,5.67
2019-05-22T21:30:51.798Z,7.50
2019-05-22T21:33:20.430Z,7.20
2019-05-22T21:35:49.029Z,8.67
2019-05-22T21:38:18.011Z,8.93
2019-05-22T21:40:47.588Z,7.33
2019-05-22T21:43:16.889Z,6.00
2019-05-22T21:45:45.398Z,6.07
2019-05-22T21:48:13.910Z,6.93
2019-05-22T21:50:42.729Z,6.03
2019-05-22T21:53:12.501Z,6.30
2019-05-22T21:55:45.402Z,8.10
2019-05-22T21:58:12.230Z,6.80
2019-05-22T22:00:45.405Z,6.83
2019-05-22T22:03:19.266Z,6.80
2019-05-22T22:05:48.064Z,7.57
2019-05-22T22:08:16.693Z,5.63
2019-05-22T22:10:45.598Z,6.87
2019-05-22T22:13:14.283Z,5.77
2019-05-22T22:15:45.470Z,6.60
2019-05-22T22:18:14.253Z,5.63
2019-05-22T22:20:43.516Z,8.07
2019-05-22T22:23:15.184Z,7.80
2019-05-22T22:25:43.958Z,6.90
2019-05-22T22:28:13.534Z,7.10
2019-05-22T22:30:58.833Z,5.87
2019-05-22T22:33:31.694Z,6.60
2019-05-22T22:36:02.025Z,7.47
2019-05-22T22:38:31.726Z,4.57
2019-05-22T22:41:00.869Z,7.43
2019-05-22T22:43:32.796Z,4.00
2019-05-22T22:46:19.554Z,8.43
2019-05-22T22:48:50.711Z,4.27
2019-05-22T22:51:20.157Z,5.73
2019-05-22T22:53:49.992Z,6.10
2019-05-22T22:56:18.787Z,5.33
2019-05-22T22:58:48.454Z,5.57
2019-05-22T23:01:23.456Z,6.93
2019-05-22T23:03:54.877Z,4.67
2019-05-22T23:06:23.686Z,7.17
2019-05-22T23:08:52.207Z,8.73
2019-05-22T23:11:22.456Z,5.13
2019-05-22T23:13:52.451Z,6.47
2019-05-22T23:16:22.889Z,5.47
2019-05-22T23:19:04.282Z,9.10
2019-05-22T23:21:33.406Z,7.27
2019-05-22T23:24:00.773Z,5.97
2019-05-22T23:26:30.041Z,7.23
2019-05-22T23:28:58.518Z,6.50
2019-05-22T23:31:27.641Z,7.57
2019-05-22T23:33:57.094Z,8.73
2019-05-22T23:36:26.167Z,6.23
2019-05-22T23:38:54.955Z,9.00
2019-05-22T23:41:26.127Z,7.13
2019-05-22T23:43:55.481Z,7.93
2019-05-22T23:46:27.726Z,10.00
2019-05-22T23:48:57.241Z,7.47
2019-05-22T23:51:25.812Z,8.27
2019-05-22T23:53:54.726Z,6.47
2019-05-22T23:56:23.163Z,9.67
2019-05-22T23:58:53.463Z,5.83
